KGLE/GLE METAR and TAF weather

Enter ICAO airport designator
Station Type Date Time Source
KGLE METAR 2021/01/22 06:35 UTC NOAA

KGLE 220635Z AUTO 04005KT 1/2SM -DZ OVC003 08/08 A2996 RMK AO2 T00760076


Station Type Date Time Source
KGLE Decoded METAR 2021/01/22 06:35 UTC NOAA

Gainesville, Gainesville Municipal Airport, TX, United States (KGLE) 33-39-05N 097-11-49W
Jan 22, 2021 - 01:35 AM EST / 2021.01.22 0635 UTC
Wind: from the NE (040 degrees) at 6 MPH (5 KT):0
Visibility: 1/2 mile(s):0
Sky conditions: overcast
Weather: light drizzle
Temperature: 45.7 F (7.6 C)
Dew Point: 45.7 F (7.6 C)
Relative Humidity: 100%
Pressure (altimeter): 29.96 in. Hg (1014 hPa)
ob: KGLE 220635Z AUTO 04005KT 1/2SM -DZ OVC003 08/08 A2996 RMK AO2 T00760076
cycle: 6

Station Type Date Time Source
KGLE TAF UTC NOAA

Error!

Example: see airport list